Time;durP1;ratioP1;P1;durP2;ratioP2;P2;SDS_P1;SDS_P2;PMS_P1;PMS_P2;Temp;Humidity;BMP_temperature;BMP_pressure;BME280_temperature;BME280_humidity;BME280_pressure;Samples;Min_cycle;Max_cycle;Signal;HPM_P1;HPM_P2
2022/03/10 00:03:52;;;;;;;11.85;7.03;;;;;;;4.92;42.01;98763.28;12761553;23;20068;-77
2022/03/10 00:09:15;;;;;;;12.07;7.60;;;;;;;4.84;42.00;98769.47;12783198;23;20289;-77
2022/03/10 00:14:37;;;;;;;12.65;7.40;;;;;;;4.80;41.73;98768.28;12803155;23;20324;-77
2022/03/10 00:20:26;;;;;;;13.15;8.10;;;;;;;4.77;42.20;98781.16;12787033;23;20025;-77
2022/03/10 00:25:47;;;;;;;11.77;7.68;;;;;;;4.71;41.80;98774.22;12801382;23;20072;-77
2022/03/10 00:31:07;;;;;;;14.60;6.95;;;;;;;4.63;42.21;98779.66;12781717;23;20017;-77
2022/03/10 00:36:29;;;;;;;12.95;7.60;;;;;;;4.53;42.33;98778.56;12782674;23;20428;-77
2022/03/10 00:41:51;;;;;;;12.60;7.53;;;;;;;4.46;42.21;98781.97;12803325;23;20421;-77
2022/03/10 00:47:14;;;;;;;12.63;7.68;;;;;;;4.37;42.09;98782.38;12780452;23;20028;-77
2022/03/10 00:52:45;;;;;;;10.15;7.05;;;;;;;4.36;43.22;98784.41;12768162;23;20017;-77
2022/03/10 00:58:06;;;;;;;15.30;7.93;;;;;;;4.32;43.15;98792.97;12781711;23;20013;-77
2022/03/10 01:03:27;;;;;;;12.75;7.57;;;;;;;4.26;43.33;98795.09;12780151;23;20088;-77
2022/03/10 01:08:47;;;;;;;13.48;7.53;;;;;;;4.15;43.32;98787.00;12780821;23;20043;-77
2022/03/10 01:14:10;;;;;;;14.32;8.00;;;;;;;4.05;43.50;98798.94;12781416;23;20017;-77
2022/03/10 01:19:31;;;;;;;12.20;7.25;;;;;;;3.97;43.33;98801.59;12780231;23;20024;-77
2022/03/10 01:24:53;;;;;;;14.93;8.18;;;;;;;3.98;44.11;98790.00;12779498;23;20478;-77
2022/03/10 01:30:16;;;;;;;14.57;7.75;;;;;;;3.92;43.96;98794.09;12740928;23;20092;-77
2022/03/10 01:35:37;;;;;;;15.55;8.82;;;;;;;3.84;44.50;98798.75;12779428;23;20071;-77
2022/03/10 01:41:25;;;;;;;19.95;8.77;;;;;;;3.76;43.98;98793.06;12770271;23;20025;-77
2022/03/10 01:46:53;;;;;;;16.67;8.50;;;;;;;3.61;44.54;98806.59;12801843;23;20013;-77
2022/03/10 01:52:41;;;;;;;13.10;7.43;;;;;;;3.62;44.75;98808.81;12767131;23;20033;-77
2022/03/10 01:58:02;;;;;;;14.68;8.18;;;;;;;3.58;44.92;98813.91;12779810;23;20013;-77
2022/03/10 02:03:56;;;;;;;14.02;8.15;;;;;;;3.51;44.93;98811.00;12755144;23;20360;-78
2022/03/10 02:20:57;;;;;;;12.68;7.78;;;;;;;3.48;45.70;98826.59;12787795;23;20017;-77
2022/03/10 02:26:18;;;;;;;14.40;8.02;;;;;;;3.47;45.24;98827.09;12799367;23;20017;-77
2022/03/10 02:31:41;;;;;;;15.27;7.72;;;;;;;3.44;45.15;98837.16;12759409;23;20024;-77
2022/03/10 02:37:02;;;;;;;14.27;7.35;;;;;;;3.41;45.41;98840.97;12758726;23;20092;-77
2022/03/10 02:42:22;;;;;;;15.40;7.65;;;;;;;3.34;45.78;98838.78;12778231;23;20336;-77
2022/03/10 02:47:43;;;;;;;14.93;7.57;;;;;;;3.27;45.63;98858.69;12778984;23;20013;-77
2022/03/10 02:53:05;;;;;;;12.60;7.63;;;;;;;3.11;45.78;98860.38;12771457;23;20029;-77
2022/03/10 02:58:25;;;;;;;12.98;7.30;;;;;;;3.00;46.22;98864.00;12758001;23;20017;-77
2022/03/10 03:03:46;;;;;;;11.68;7.53;;;;;;;2.99;46.92;98870.78;12757277;23;20020;-77
2022/03/10 03:09:07;;;;;;;15.70;8.30;;;;;;;2.98;46.61;98869.25;12780299;23;20080;-77
2022/03/10 03:14:28;;;;;;;12.70;7.10;;;;;;;2.91;46.86;98875.34;12739454;23;20021;-77
2022/03/10 03:19:49;;;;;;;13.00;8.10;;;;;;;2.84;46.33;98867.63;12760673;23;20017;-76
2022/03/10 03:25:17;;;;;;;13.77;7.80;;;;;;;2.75;46.79;98876.25;12742957;23;20444;-77
2022/03/10 03:30:39;;;;;;;14.18;8.18;;;;;;;2.64;46.82;98876.34;12786087;23;20425;-77
2022/03/10 03:35:59;;;;;;;14.13;8.25;;;;;;;2.66;47.01;98885.59;12781790;23;20020;-77
2022/03/10 03:41:20;;;;;;;15.15;7.95;;;;;;;2.57;47.40;98878.38;12803089;23;20021;-77
2022/03/10 03:46:41;;;;;;;14.40;8.05;;;;;;;2.51;47.58;98885.19;12783789;23;20013;-77
2022/03/10 03:52:04;;;;;;;16.08;8.32;;;;;;;2.50;47.42;98897.47;12779653;23;20025;-77
2022/03/10 03:57:25;;;;;;;15.75;8.68;;;;;;;2.43;47.65;98896.03;12761553;23;20112;-77
2022/03/10 04:02:46;;;;;;;11.88;7.75;;;;;;;2.42;47.72;98889.03;12781280;23;20143;-77
2022/03/10 04:08:07;;;;;;;13.35;8.32;;;;;;;2.41;48.16;98887.50;12762842;23;20039;-77
2022/03/10 04:13:28;;;;;;;13.43;8.32;;;;;;;2.42;48.03;98883.53;12780775;23;20023;-77
2022/03/10 04:18:49;;;;;;;13.25;7.70;;;;;;;2.38;47.90;98887.78;12781392;23;20079;-77
2022/03/10 04:24:11;;;;;;;12.40;8.40;;;;;;;2.37;47.96;98892.56;12740251;23;20017;-77
2022/03/10 04:29:32;;;;;;;16.05;8.25;;;;;;;2.33;47.97;98899.63;12780362;23;20084;-77
2022/03/10 04:34:52;;;;;;;15.38;8.48;;;;;;;2.29;48.26;98897.13;12759668;23;20017;-77
2022/03/10 04:41:16;;;;;;;13.68;7.95;;;;;;;2.21;48.66;98901.69;12772808;23;20452;-77
2022/03/10 04:46:37;;;;;;;15.55;9.55;;;;;;;2.11;48.43;98914.25;12800828;23;20071;-78
2022/03/10 04:52:08;;;;;;;14.80;8.57;;;;;;;2.00;48.76;98924.06;12799397;23;20092;-78
2022/03/10 04:58:02;;;;;;;16.90;9.60;;;;;;;1.96;48.93;98909.84;12760360;23;20037;-77
2022/03/10 05:03:32;;;;;;;18.38;9.88;;;;;;;2.00;49.03;98918.56;12800746;23;20044;-77
2022/03/10 05:09:04;;;;;;;19.90;10.38;;;;;;;2.06;48.95;98926.06;12760532;23;20093;-77
2022/03/10 05:14:25;;;;;;;15.13;9.65;;;;;;;2.00;49.50;98926.06;12760137;23;20021;-77
2022/03/10 05:19:46;;;;;;;15.57;8.85;;;;;;;1.98;49.07;98929.34;12780845;23;20020;-78
2022/03/10 05:25:09;;;;;;;19.10;10.70;;;;;;;1.94;49.52;98939.88;12760193;23;20021;-77
2022/03/10 05:30:30;;;;;;;20.77;10.00;;;;;;;1.93;49.80;98937.63;12801146;23;20027;-77
2022/03/10 05:37:24;;;;;;;17.17;9.55;;;;;;;1.99;50.12;98944.59;12770520;23;20029;-77
2022/03/10 05:42:46;;;;;;;16.98;9.35;;;;;;;2.92;49.98;98950.56;12799482;23;20037;-78
2022/03/10 05:48:06;;;;;;;16.95;10.05;;;;;;;4.23;48.77;98948.16;12778610;23;20017;-78
2022/03/10 05:53:56;;;;;;;19.45;11.30;;;;;;;5.97;47.36;98957.13;12784748;23;20025;-79
2022/03/10 05:59:20;;;;;;;18.33;11.20;;;;;;;7.77;45.27;98950.88;12799874;23;20017;-79
2022/03/10 06:04:41;;;;;;;21.52;11.20;;;;;;;8.49;44.57;98958.44;12800478;23;20439;-79
2022/03/10 06:10:36;;;;;;;28.95;17.45;;;;;;;9.06;42.57;98964.50;12760947;23;20027;-79
2022/03/10 06:15:57;;;;;;;21.63;14.33;;;;;;;11.43;41.25;98978.38;12802438;23;20017;-79
2022/03/10 06:21:18;;;;;;;18.27;12.85;;;;;;;13.26;39.65;98983.91;12760416;23;20017;-79
2022/03/10 06:26:40;;;;;;;20.80;12.65;;;;;;;14.35;35.38;98979.34;12762564;23;20013;-79
2022/03/10 06:32:03;;;;;;;19.00;12.07;;;;;;;15.54;34.93;98983.47;12782893;23;20013;-79
2022/03/10 06:37:27;;;;;;;20.02;13.23;;;;;;;16.79;31.56;98990.25;12782747;23;20021;-79
2022/03/10 06:43:48;;;;;;;24.33;13.30;;;;;;;18.06;24.91;98986.56;12774277;23;20025;-79
2022/03/10 06:49:39;;;;;;;20.77;14.52;;;;;;;18.72;26.60;99005.84;12786893;23;20096;-80
2022/03/10 06:55:28;;;;;;;24.92;15.35;;;;;;;19.66;27.10;99003.84;12781088;23;20029;-80
2022/03/10 07:00:49;;;;;;;24.80;14.82;;;;;;;18.03;27.20;98994.91;12824691;23;20459;-86
2022/03/10 07:06:18;;;;;;;27.20;15.25;;;;;;;19.60;25.96;98997.91;12775283;23;20021;-85
2022/03/10 07:11:39;;;;;;;27.40;16.17;;;;;;;22.37;23.91;98998.66;12803154;23;20013;-83
2022/03/10 07:17:00;;;;;;;24.17;15.45;;;;;;;23.89;22.08;99012.28;12802991;23;20048;-83
2022/03/10 07:22:21;;;;;;;26.85;15.50;;;;;;;25.05;20.40;99010.38;12803071;23;20024;-82
2022/03/10 07:27:42;;;;;;;25.10;15.25;;;;;;;25.61;17.07;99008.47;12803416;23;20017;-82
2022/03/10 07:33:03;;;;;;;24.33;15.57;;;;;;;25.54;16.05;99011.81;12802573;23;20428;-82
2022/03/10 07:38:25;;;;;;;23.48;15.07;;;;;;;24.21;17.21;99016.22;12778617;23;20013;-82
2022/03/10 07:43:46;;;;;;;22.63;14.48;;;;;;;22.70;18.50;99034.84;12776811;23;20017;-84
2022/03/10 07:49:08;;;;;;;23.02;13.88;;;;;;;22.03;18.76;99032.78;12797664;23;20024;-84
2022/03/10 07:54:29;;;;;;;38.28;15.18;;;;;;;21.29;18.90;99043.03;12781133;23;20321;-83
2022/03/10 07:59:52;;;;;;;27.80;15.53;;;;;;;21.56;20.56;99050.63;12781028;23;20025;-83
2022/03/10 08:05:12;;;;;;;25.08;14.13;;;;;;;22.65;18.97;99038.91;12773319;23;20440;-81
2022/03/10 08:10:34;;;;;;;25.85;14.35;;;;;;;25.70;18.22;99038.03;12761057;23;20017;-82
2022/03/10 08:15:58;;;;;;;;;;;;;;;30.20;12.59;99038.75;12780920;23;20017;-82
2022/03/10 08:21:19;;;;;;;19.95;13.73;;;;;;;33.56;11.07;99048.50;12740194;23;19916;-83
2022/03/10 08:26:40;;;;;;;22.05;13.43;;;;;;;34.99;8.96;99039.59;12780915;23;20017;-83
2022/03/10 08:32:01;;;;;;;20.52;13.02;;;;;;;37.06;7.32;99046.16;12780171;23;20075;-83
2022/03/10 08:37:23;;;;;;;19.30;13.50;;;;;;;37.73;6.98;99048.47;12780851;23;20021;-83
2022/03/10 08:42:45;;;;;;;20.65;12.98;;;;;;;38.52;6.37;99048.88;12780875;23;20372;-82
2022/03/10 08:48:06;;;;;;;21.73;11.77;;;;;;;38.32;6.61;99058.84;12802243;23;20372;-82
2022/03/10 08:53:27;;;;;;;21.45;13.23;;;;;;;36.72;6.94;99056.22;12780534;23;20436;-83
2022/03/10 08:58:47;;;;;;;16.65;12.60;;;;;;;36.96;6.99;99061.59;12758656;23;20025;-83
2022/03/10 09:04:08;;;;;;;16.98;12.93;;;;;;;37.79;6.33;99059.28;12739102;23;20021;-83
2022/03/10 09:09:29;;;;;;;21.38;12.75;;;;;;;38.27;6.08;99051.66;12759861;23;20017;-82
2022/03/10 09:14:50;;;;;;;16.48;12.77;;;;;;;36.91;6.20;99048.63;12738565;23;20440;-82
2022/03/10 09:20:13;;;;;;;18.52;12.23;;;;;;;38.59;6.16;99037.78;12777571;23;20040;-83
2022/03/10 09:25:35;;;;;;;17.77;13.05;;;;;;;38.74;5.78;99044.72;12780316;23;20021;-83
2022/03/10 09:30:56;;;;;;;16.25;12.30;;;;;;;37.70;5.76;99043.44;12778488;23;20017;-83
2022/03/10 09:36:17;;;;;;;16.00;11.35;;;;;;;39.49;5.80;99044.88;12779179;23;20013;-83
2022/03/10 09:41:40;;;;;;;19.05;12.02;;;;;;;38.55;6.10;99034.97;12738874;23;20021;-83
2022/03/10 09:47:03;;;;;;;16.35;9.85;;;;;;;37.70;6.11;99049.97;12779539;23;20028;-83
2022/03/10 09:52:36;;;;;;;13.23;10.55;;;;;;;37.38;6.29;99039.03;12739489;23;20041;-83
2022/03/10 09:57:57;;;;;;;10.93;9.75;;;;;;;36.28;6.65;99035.06;12758201;23;20017;-85
2022/03/10 10:03:18;;;;;;;13.38;9.80;;;;;;;36.38;6.43;99038.56;12778282;23;20044;-84
2022/03/10 10:08:41;;;;;;;11.73;9.65;;;;;;;34.10;6.97;99028.69;12758940;23;20012;-82
2022/03/10 10:14:02;;;;;;;11.43;9.07;;;;;;;30.08;9.74;99043.69;12738141;23;20021;-84
2022/03/10 10:19:23;;;;;;;11.57;10.35;;;;;;;27.04;11.15;99040.75;12757625;23;20024;-83
2022/03/10 10:24:55;;;;;;;11.88;10.40;;;;;;;32.96;9.32;99035.63;12779044;23;20025;-84
2022/03/10 10:30:16;;;;;;;12.32;9.88;;;;;;;33.84;8.42;99044.03;12736618;23;20071;-83
2022/03/10 10:35:37;;;;;;;11.70;10.52;;;;;;;32.83;8.45;99042.16;12777208;23;20013;-83
2022/03/10 10:41:36;;;;;;;12.13;9.57;;;;;;;33.28;8.63;99031.94;12736357;23;20317;-83
2022/03/10 10:46:58;;;;;;;11.15;9.95;;;;;;;34.72;7.88;99041.28;12591776;23;20058;-86
2022/03/10 10:52:19;;;;;;;11.57;8.75;;;;;;;34.87;7.36;99038.97;12723205;23;20032;-85
2022/03/10 10:57:40;;;;;;;13.52;9.48;;;;;;;35.83;7.13;99030.63;12744536;23;20025;-84
2022/03/10 11:03:01;;;;;;;11.65;10.55;;;;;;;32.40;7.92;99024.81;12798213;23;20145;-82
2022/03/10 11:08:23;;;;;;;11.80;10.43;;;;;;;27.46;10.36;99020.13;12778258;23;20021;-80
2022/03/10 11:13:44;;;;;;;13.45;12.07;;;;;;;23.81;12.63;99020.53;12757502;23;20068;-84
2022/03/10 11:19:05;;;;;;;14.77;13.17;;;;;;;22.06;14.31;99005.16;12777388;23;20013;-85
2022/03/10 11:24:40;;;;;;;16.47;13.37;;;;;;;20.58;16.13;98999.94;12778321;23;20048;-84
2022/03/10 11:30:02;;;;;;;15.45;13.45;;;;;;;17.94;19.94;99004.25;12798539;23;20548;-86
2022/03/10 11:35:23;;;;;;;21.17;15.63;;;;;;;17.23;20.15;98996.44;12797521;23;20424;-94
2022/03/10 11:40:57;;;;;;;18.88;14.27;;;;;;;17.30;21.47;98996.19;12798795;23;20013;-85
2022/03/10 11:46:23;;;;;;;20.15;15.95;;;;;;;16.43;21.72;99007.63;12802175;23;20510;-85
2022/03/10 11:51:52;;;;;;;23.80;17.30;;;;;;;16.01;22.93;99004.22;12781591;23;20100;-87
2022/03/10 11:57:14;;;;;;;19.42;15.90;;;;;;;16.06;23.43;98996.78;12781259;23;20337;-85
2022/03/10 12:02:39;;;;;;;19.52;15.15;;;;;;;15.53;23.83;99004.47;12780541;23;20017;-84
2022/03/10 12:08:01;;;;;;;19.60;14.63;;;;;;;15.43;23.59;98990.44;12742910;23;20013;-85
2022/03/10 12:13:37;;;;;;;17.55;14.52;;;;;;;15.62;24.12;98995.28;12801499;23;20020;-84
2022/03/10 12:18:59;;;;;;;19.40;16.40;;;;;;;15.56;24.20;98980.03;12760388;23;20021;-81
2022/03/10 12:24:20;;;;;;;22.23;17.38;;;;;;;14.72;24.42;98979.91;12801758;23;20020;-78
2022/03/10 12:29:41;;;;;;;24.30;18.88;;;;;;;14.90;24.95;98980.47;12800846;23;20021;-78
2022/03/10 12:35:05;;;;;;;23.97;16.30;;;;;;;15.49;24.81;98986.59;12801680;23;20084;-84
2022/03/10 12:40:27;;;;;;;18.63;15.05;;;;;;;15.05;24.85;98974.47;12743782;23;20344;-79
2022/03/10 12:45:48;;;;;;;17.88;14.68;;;;;;;14.90;24.95;98974.84;12779092;23;20017;-79
2022/03/10 12:51:24;;;;;;;21.05;15.68;;;;;;;14.47;25.03;98985.09;12690815;23;20513;-79
2022/03/10 12:57:16;;;;;;;17.42;13.38;;;;;;;13.79;25.68;98978.72;12691468;23;20021;31
2022/03/10 13:02:37;;;;;;;16.48;13.00;;;;;;;13.49;25.74;98980.72;12670681;23;20053;-78
2022/03/10 13:08:09;;;;;;;16.95;12.68;;;;;;;13.40;25.77;98982.16;12762397;23;20025;-78
2022/03/10 13:13:30;;;;;;;19.30;13.43;;;;;;;13.53;25.72;98983.84;12758762;23;20016;-80
2022/03/10 13:18:51;;;;;;;18.40;14.73;;;;;;;12.86;26.49;98982.22;12737214;23;20025;-78
2022/03/10 13:24:34;;;;;;;21.63;14.55;;;;;;;12.74;27.78;98967.25;12793034;23;20013;-78
2022/03/10 13:29:56;;;;;;;16.33;13.65;;;;;;;12.84;26.92;98972.91;12802627;23;20017;-76
2022/03/10 13:35:34;;;;;;;15.05;12.68;;;;;;;12.63;27.08;98972.63;12807473;23;20025;-79
2022/03/10 13:41:01;;;;;;;17.05;11.63;;;;;;;12.39;26.85;98965.84;12784186;23;20040;-75
2022/03/10 13:46:23;;;;;;;11.48;9.65;;;;;;;12.11;26.52;98956.66;12820041;23;20024;-75
2022/03/10 13:51:45;;;;;;;13.68;9.43;;;;;;;12.01;26.72;98964.22;12758964;23;20067;-75
2022/03/10 13:57:06;;;;;;;12.80;9.25;;;;;;;11.59;26.49;98956.59;12800485;23;20017;-75
2022/03/10 14:02:27;;;;;;;12.82;8.63;;;;;;;11.30;26.79;98966.75;12816989;23;20024;-75
2022/03/10 14:07:52;;;;;;;11.18;8.05;;;;;;;11.44;26.25;98957.47;12781557;23;20020;-75
2022/03/10 14:13:13;;;;;;;11.98;7.53;;;;;;;11.32;26.19;98944.53;12778455;23;20028;-75
2022/03/10 14:18:35;;;;;;;8.85;6.70;;;;;;;11.27;26.13;98937.13;12799526;23;20016;-75
2022/03/10 14:23:56;;;;;;;10.45;6.90;;;;;;;11.21;25.76;98937.38;12798531;23;20013;-75
2022/03/10 14:29:16;;;;;;;9.52;6.63;;;;;;;10.93;25.24;98929.38;12821522;23;20428;-76
2022/03/10 14:34:37;;;;;;;8.20;6.10;;;;;;;10.70;24.63;98933.06;12779097;23;20017;-75
2022/03/10 14:39:59;;;;;;;10.23;5.43;;;;;;;10.37;24.51;98935.09;12779674;23;20013;-79
2022/03/10 14:45:20;;;;;;;8.88;5.32;;;;;;;10.33;24.91;98940.34;12799686;23;20013;-76
2022/03/10 14:50:41;;;;;;;8.35;5.47;;;;;;;9.99;24.44;98927.59;12758405;23;20021;-76
2022/03/10 14:56:02;;;;;;;10.00;5.78;;;;;;;9.86;24.72;98922.25;12787084;23;20013;-78
2022/03/10 15:01:23;;;;;;;10.18;6.28;;;;;;;9.78;24.99;98934.75;12812934;23;20528;-79
2022/03/10 15:06:44;;;;;;;12.35;6.75;;;;;;;9.65;25.57;98930.09;12779160;23;20039;-78
2022/03/10 15:12:25;;;;;;;12.98;6.82;;;;;;;9.24;26.19;98918.06;12799142;23;20388;-79
2022/03/10 15:17:46;;;;;;;8.77;5.90;;;;;;;9.17;26.59;98914.00;12825501;23;20013;-79
2022/03/10 15:23:07;;;;;;;8.43;6.28;;;;;;;9.17;26.96;98925.16;12801754;23;20021;-80
2022/03/10 15:28:28;;;;;;;7.65;6.28;;;;;;;9.17;26.68;98929.97;12824525;23;20024;-79
2022/03/10 15:33:48;;;;;;;9.60;6.40;;;;;;;8.69;26.87;98915.84;12797863;23;20039;-80
2022/03/10 15:39:09;;;;;;;10.73;6.82;;;;;;;8.56;26.92;98907.63;12780471;23;20518;-79
2022/03/10 15:44:30;;;;;;;10.15;8.00;;;;;;;8.54;27.70;98908.19;12784421;23;20017;-79
2022/03/10 15:49:54;;;;;;;10.80;8.32;;;;;;;8.39;28.08;98912.97;12806731;23;20044;-76
2022/03/10 15:55:14;;;;;;;11.95;8.15;;;;;;;8.18;29.37;98924.19;12781157;23;20375;-76
2022/03/10 16:00:36;;;;;;;10.85;7.68;;;;;;;7.93;29.67;98910.75;12801789;23;20043;-76
2022/03/10 16:05:58;;;;;;;10.32;7.80;;;;;;;7.83;30.50;98917.38;12762993;23;20021;-77
2022/03/10 16:11:18;;;;;;;12.05;7.50;;;;;;;7.63;31.50;98911.34;12795395;23;20020;-77
2022/03/10 16:16:39;;;;;;;10.13;7.15;;;;;;;7.55;31.21;98918.88;12822822;23;20336;-77
2022/03/10 16:22:00;;;;;;;11.68;6.63;;;;;;;7.39;31.13;98918.03;12780840;23;20332;-76
2022/03/10 16:27:21;;;;;;;9.32;6.60;;;;;;;7.24;31.74;98922.72;12780507;23;20029;-75
2022/03/10 16:32:42;;;;;;;8.63;6.60;;;;;;;7.11;31.48;98938.19;12738814;23;20024;-75
2022/03/10 16:38:05;;;;;;;8.30;6.07;;;;;;;7.01;31.83;98936.44;12760078;23;20021;-75
2022/03/10 16:43:26;;;;;;;9.32;6.20;;;;;;;6.87;31.58;98942.06;12800858;23;20376;-75
2022/03/10 16:48:46;;;;;;;7.43;5.25;;;;;;;6.81;31.48;98946.25;12760501;23;20024;-76
2022/03/10 16:54:07;;;;;;;9.77;5.60;;;;;;;6.81;31.26;98954.56;12780324;23;20435;-77
2022/03/10 16:59:28;;;;;;;9.13;5.40;;;;;;;6.73;31.24;98956.50;12822335;23;20331;-77
2022/03/10 17:04:49;;;;;;;6.75;4.97;;;;;;;6.71;31.02;98964.63;12760292;23;20029;-76
2022/03/10 17:10:10;;;;;;;7.45;4.03;;;;;;;6.55;30.62;98964.47;12779414;23;20013;-77
2022/03/10 17:15:30;;;;;;;6.22;3.67;;;;;;;6.50;30.24;98962.56;12780074;23;20021;-75
2022/03/10 17:20:51;;;;;;;6.45;3.83;;;;;;;6.47;30.08;98980.31;12799901;23;20017;-75
2022/03/10 17:26:12;;;;;;;10.25;4.13;;;;;;;6.25;29.44;98984.28;12778420;23;20013;-75
2022/03/10 17:31:33;;;;;;;6.25;3.45;;;;;;;6.04;29.13;98997.31;12758783;23;20021;-76
2022/03/10 17:36:54;;;;;;;8.70;4.07;;;;;;;5.94;29.03;98994.22;12799598;23;20024;-77
2022/03/10 17:42:14;;;;;;;8.82;3.97;;;;;;;5.90;29.17;98998.59;12778625;23;20013;-77
2022/03/10 17:47:35;;;;;;;11.18;4.57;;;;;;;5.87;29.17;99003.16;12778300;23;20013;-76
2022/03/10 17:52:59;;;;;;;8.13;3.78;;;;;;;5.84;29.10;99012.53;12778653;23;20013;-76
2022/03/10 17:58:20;;;;;;;6.50;4.03;;;;;;;5.67;28.33;99012.09;12802896;23;20048;-77
2022/03/10 18:03:40;;;;;;;8.95;3.95;;;;;;;5.50;28.52;99017.16;12791611;23;20027;-76
2022/03/10 18:09:03;;;;;;;8.02;5.00;;;;;;;5.23;28.28;99019.91;12759247;23;20100;-76
2022/03/10 18:14:25;;;;;;;7.80;4.47;;;;;;;4.98;28.70;99015.75;12757742;23;20016;-75
2022/03/10 18:19:47;;;;;;;8.55;5.05;;;;;;;4.88;28.81;99010.59;12777696;23;20013;-75
2022/03/10 18:25:08;;;;;;;9.50;5.47;;;;;;;4.78;29.38;99015.03;12758144;23;20021;-75
2022/03/10 18:30:29;;;;;;;10.02;5.28;;;;;;;4.65;29.51;99011.47;12778158;23;20021;-75
2022/03/10 18:35:49;;;;;;;9.60;5.55;;;;;;;4.54;29.84;99009.59;12798417;23;20348;-77
2022/03/10 18:41:15;;;;;;;11.07;5.65;;;;;;;4.43;29.99;99001.44;12799362;23;20384;-77
2022/03/10 18:46:35;;;;;;;8.68;6.03;;;;;;;4.26;30.13;99010.69;12757901;23;20017;-75
2022/03/10 18:51:58;;;;;;;8.55;5.90;;;;;;;4.18;30.45;99012.56;12761349;23;20017;-76
2022/03/10 18:57:19;;;;;;;10.23;6.63;;;;;;;3.99;30.80;99014.53;12805270;23;20016;-76
2022/03/10 19:02:42;;;;;;;14.32;6.57;;;;;;;3.88;31.75;99009.13;12785400;23;20031;-76
2022/03/10 19:08:04;;;;;;;11.80;6.75;;;;;;;3.73;32.23;99010.28;12766040;23;20019;-76
2022/03/10 19:13:25;;;;;;;12.27;6.80;;;;;;;3.67;31.23;99012.38;12785220;23;20095;-76
2022/03/10 19:18:46;;;;;;;12.13;7.13;;;;;;;3.65;31.77;99009.34;12763651;23;20087;-76
2022/03/10 19:24:07;;;;;;;11.48;6.55;;;;;;;3.61;32.08;98997.84;12784137;23;20013;-76
2022/03/10 19:29:28;;;;;;;11.77;7.07;;;;;;;3.44;32.48;99005.53;12805230;23;20021;-76
2022/03/10 19:34:49;;;;;;;13.15;6.85;;;;;;;3.45;32.69;99009.78;12783838;23;20317;-76
2022/03/10 19:40:10;;;;;;;12.98;6.65;;;;;;;3.46;33.07;99008.53;12804794;23;20017;-75
2022/03/10 19:45:32;;;;;;;12.27;6.60;;;;;;;3.43;32.96;99013.06;12739134;23;20396;-75
2022/03/10 19:50:53;;;;;;;14.15;8.90;;;;;;;3.30;32.74;99003.94;12764567;23;20017;-77
2022/03/10 19:56:17;;;;;;;13.57;7.20;;;;;;;3.10;33.69;99013.38;12764138;23;20028;-76
2022/03/10 20:01:40;;;;;;;15.07;7.63;;;;;;;3.07;33.41;99011.63;12783164;23;20031;-75
2022/03/10 20:07:04;;;;;;;14.52;8.05;;;;;;;3.04;33.58;99016.16;12788215;23;20087;-75
2022/03/10 20:12:25;;;;;;;12.88;7.82;;;;;;;2.93;33.48;99013.50;12760747;23;20033;-75
2022/03/10 20:17:47;;;;;;;14.13;8.27;;;;;;;2.85;33.76;99012.53;12759853;23;20020;-75
2022/03/10 20:23:08;;;;;;;12.38;7.03;;;;;;;2.72;34.45;99004.84;12801136;23;20072;-75
2022/03/10 20:28:32;;;;;;;13.68;8.10;;;;;;;2.56;34.17;99022.97;12780352;23;20017;-75
2022/03/10 20:33:53;;;;;;;14.18;7.63;;;;;;;2.51;34.18;99023.78;12781426;23;20439;-75
2022/03/10 20:39:14;;;;;;;12.73;7.40;;;;;;;2.51;34.89;99029.28;12779632;23;20027;-75
2022/03/10 20:44:37;;;;;;;14.82;8.52;;;;;;;2.37;35.09;99024.09;12791938;23;20336;-78
2022/03/10 20:49:57;;;;;;;12.27;7.68;;;;;;;2.31;35.02;99029.63;12774577;23;20017;-79
2022/03/10 20:55:19;;;;;;;15.07;8.23;;;;;;;2.16;35.10;99037.44;12770687;23;20466;-79
2022/03/10 21:00:41;;;;;;;15.52;8.02;;;;;;;2.08;35.66;99036.47;12804513;23;20001;-81
2022/03/10 21:06:04;;;;;;;14.70;8.68;;;;;;;2.03;35.14;99017.94;12782480;23;20021;-82
2022/03/10 21:11:25;;;;;;;13.77;8.13;;;;;;;1.93;35.66;99021.00;12819834;23;20001;-82
2022/03/10 21:16:47;;;;;;;17.63;8.40;;;;;;;1.99;36.24;99021.72;12819063;23;20045;-82
2022/03/10 21:22:08;;;;;;;14.73;8.13;;;;;;;1.93;35.64;99025.75;12818002;23;20021;-80
2022/03/10 21:27:32;;;;;;;17.63;8.13;;;;;;;1.88;35.02;99019.00;12795619;23;20037;-81
2022/03/10 21:32:55;;;;;;;16.92;8.30;;;;;;;1.91;35.35;99029.00;12814941;23;20021;-81
2022/03/10 21:38:16;;;;;;;15.07;7.88;;;;;;;1.91;35.38;99031.00;12839970;23;20021;-82
2022/03/10 21:43:39;;;;;;;15.18;8.20;;;;;;;1.83;35.40;99033.53;12819282;23;20371;-81
2022/03/10 21:49:00;;;;;;;13.50;8.18;;;;;;;1.75;35.29;99026.31;12799037;23;20048;-80
2022/03/10 21:54:21;;;;;;;12.70;7.43;;;;;;;1.60;35.42;99032.84;12820504;23;20017;-80
2022/03/10 21:59:42;;;;;;;14.65;8.75;;;;;;;1.56;35.79;99031.59;12812880;23;20073;-81
2022/03/10 22:05:04;;;;;;;13.50;7.20;;;;;;;1.47;36.06;99032.59;12753821;23;20032;-80
2022/03/10 22:10:28;;;;;;;15.65;7.88;;;;;;;1.46;36.14;99022.84;12779631;23;20021;-80
2022/03/10 22:15:49;;;;;;;14.80;8.13;;;;;;;1.37;35.65;99015.59;12781602;23;20369;-81
2022/03/10 22:21:10;;;;;;;17.70;7.38;;;;;;;1.27;35.83;99025.38;12802022;23;20036;-81
2022/03/10 22:26:33;;;;;;;15.88;7.45;;;;;;;1.28;35.62;99026.88;12805098;23;20017;-81
2022/03/10 22:31:55;;;;;;;14.33;7.93;;;;;;;1.05;35.31;99028.09;12789200;23;20021;-81
2022/03/10 22:37:16;;;;;;;14.80;7.57;;;;;;;0.96;35.28;99014.59;12812132;23;20024;-81
2022/03/10 22:42:40;;;;;;;15.07;8.32;;;;;;;0.94;35.60;99017.09;12811079;23;20442;-81
2022/03/10 22:48:01;;;;;;;11.90;6.60;;;;;;;0.90;34.79;99022.09;12792323;23;20032;-81
2022/03/10 22:59:02;;;;;;;15.75;7.63;;;;;;;0.66;34.53;99014.28;12815955;23;20045;-80
2022/03/10 23:10:03;;;;;;;11.38;5.38;;;;;;;0.39;35.00;99013.75;12797116;23;20044;-81
2022/03/10 23:15:24;;;;;;;11.73;5.78;;;;;;;0.31;35.10;99009.22;12814555;23;20060;-80
2022/03/10 23:20:45;;;;;;;17.80;6.57;;;;;;;0.31;34.80;99009.22;12793756;23;20032;-80
2022/03/10 23:26:06;;;;;;;13.70;6.18;;;;;;;0.22;34.88;99012.94;12793507;23;20024;-80
2022/03/10 23:31:27;;;;;;;16.65;6.82;;;;;;;0.07;34.94;99015.13;12793374;23;20024;-81
2022/03/10 23:36:48;;;;;;;12.27;5.60;;;;;;;0.09;34.93;99016.13;12814492;23;20004;-81
2022/03/10 23:42:09;;;;;;;10.15;5.95;;;;;;;0.07;35.35;99015.88;12777962;23;20044;-80
2022/03/10 23:47:30;;;;;;;10.20;5.78;;;;;;;-0.01;35.07;99015.56;12795816;23;20021;-81
2022/03/10 23:52:51;;;;;;;11.60;5.95;;;;;;;0.03;35.65;99003.63;12796897;23;20024;-81
2022/03/10 23:58:12;;;;;;;13.40;6.18;;;;;;;-0.05;35.44;99009.59;12817180;23;20021;-81
